createdAt,value
2018-07-23T00:00:35.421Z,22.59
2018-07-23T00:01:15.995Z,22.54
2018-07-23T00:01:56.556Z,22.55
2018-07-23T00:02:37.136Z,22.51
2018-07-23T00:03:17.694Z,22.57
2018-07-23T00:03:58.251Z,22.59
2018-07-23T00:04:38.821Z,22.55
2018-07-23T00:05:19.396Z,22.55
2018-07-23T00:05:59.965Z,22.5
2018-07-23T00:06:40.539Z,22.5
2018-07-23T00:07:21.092Z,22.47
2018-07-23T00:08:01.663Z,22.47
2018-07-23T00:08:42.216Z,22.44
2018-07-23T00:09:22.768Z,22.45
2018-07-23T00:10:03.354Z,22.39
2018-07-23T00:10:43.917Z,22.39
2018-07-23T00:11:24.476Z,22.44
2018-07-23T00:12:05.044Z,22.44
2018-07-23T00:12:45.619Z,22.39
2018-07-23T00:13:26.164Z,22.45
2018-07-23T00:14:06.731Z,22.47
2018-07-23T00:14:47.312Z,22.44
2018-07-23T00:15:27.878Z,22.45
2018-07-23T00:16:08.439Z,22.45
2018-07-23T00:16:49.010Z,22.33
2018-07-23T00:17:29.609Z,22.36
2018-07-23T00:18:10.175Z,22.36
2018-07-23T00:18:50.736Z,22.32
2018-07-23T00:19:31.306Z,22.36
2018-07-23T00:20:11.874Z,22.36
2018-07-23T00:20:52.417Z,22.33
2018-07-23T00:21:32.973Z,22.32
2018-07-23T00:22:13.537Z,22.28
2018-07-23T00:22:54.110Z,22.35
2018-07-23T00:23:34.675Z,22.32
2018-07-23T00:24:15.240Z,22.29
2018-07-23T00:24:55.800Z,22.38
2018-07-23T00:25:36.366Z,22.32
2018-07-23T00:26:16.931Z,22.23
2018-07-23T00:26:57.506Z,22.32
2018-07-23T00:27:38.074Z,22.35
2018-07-23T00:28:18.632Z,22.36
2018-07-23T00:28:59.199Z,22.25
2018-07-23T00:29:39.769Z,22.33
2018-07-23T00:30:20.352Z,22.32
2018-07-23T00:31:00.920Z,22.23
2018-07-23T00:31:41.494Z,22.22
2018-07-23T00:32:22.055Z,22.28
2018-07-23T00:33:02.650Z,22.29
2018-07-23T00:33:43.202Z,22.22
2018-07-23T00:34:23.766Z,22.18
2018-07-23T00:35:04.331Z,22.13
2018-07-23T00:35:44.904Z,22.18
2018-07-23T00:36:25.533Z,22.15
2018-07-23T00:37:06.090Z,22.18
2018-07-23T00:37:46.658Z,22.14
2018-07-23T00:38:27.233Z,22.15
2018-07-23T00:39:07.802Z,22.18
2018-07-23T00:39:48.367Z,22.11
2018-07-23T00:40:28.939Z,22.13
2018-07-23T00:41:09.499Z,22.08
2018-07-23T00:41:50.063Z,22.14
2018-07-23T00:42:30.641Z,22.08
2018-07-23T00:43:11.214Z,22.07
2018-07-23T00:43:51.773Z,22.1
2018-07-23T00:44:32.347Z,22.1
2018-07-23T00:45:12.907Z,22.04
2018-07-23T00:45:53.491Z,22.08
2018-07-23T00:46:34.068Z,22.08
2018-07-23T00:47:14.637Z,22.06
2018-07-23T00:47:55.206Z,22.08
2018-07-23T00:48:35.780Z,22.06
2018-07-23T00:49:16.341Z,22.06
2018-07-23T00:49:56.915Z,21.99
2018-07-23T00:50:37.480Z,22
2018-07-23T00:51:18.128Z,22.04
2018-07-23T00:51:58.692Z,22
2018-07-23T00:52:39.274Z,21.98
2018-07-23T00:53:19.830Z,21.98
2018-07-23T00:54:00.410Z,21.91
2018-07-23T00:54:40.962Z,21.89
2018-07-23T00:55:21.534Z,21.91
2018-07-23T00:56:02.090Z,21.96
2018-07-23T00:56:42.650Z,21.95
2018-07-23T00:57:23.214Z,21.91
2018-07-23T00:58:03.797Z,21.95
2018-07-23T00:58:44.355Z,21.88
2018-07-23T00:59:24.932Z,21.89
2018-07-23T01:00:05.495Z,21.89
2018-07-23T01:00:46.068Z,21.77
2018-07-23T01:01:26.650Z,21.89
2018-07-23T01:02:07.222Z,21.77
2018-07-23T01:02:47.793Z,21.8
2018-07-23T01:03:28.362Z,21.82
2018-07-23T01:04:08.919Z,21.83
2018-07-23T01:04:49.526Z,21.8
2018-07-23T01:05:30.095Z,21.91
2018-07-23T01:06:10.677Z,21.82
2018-07-23T01:06:51.256Z,21.88
2018-07-23T01:07:31.802Z,21.8
2018-07-23T01:08:12.372Z,21.77
2018-07-23T01:08:52.939Z,21.8
2018-07-23T01:09:33.490Z,21.83
2018-07-23T01:10:14.064Z,21.8
2018-07-23T01:10:54.634Z,21.82
2018-07-23T01:11:35.191Z,21.85
2018-07-23T01:12:15.756Z,21.85
2018-07-23T01:12:56.323Z,21.7
2018-07-23T01:13:36.900Z,21.83
2018-07-23T01:14:17.450Z,21.77
2018-07-23T01:14:57.993Z,21.79
2018-07-23T01:15:38.546Z,21.79
2018-07-23T01:16:19.122Z,21.83
2018-07-23T01:16:59.670Z,21.88
2018-07-23T01:17:40.232Z,21.72
2018-07-23T01:18:20.805Z,21.75
2018-07-23T01:19:01.411Z,21.82
2018-07-23T01:19:41.979Z,21.89
2018-07-23T01:20:22.536Z,21.8
2018-07-23T01:21:03.080Z,21.77
2018-07-23T01:21:43.645Z,21.69
2018-07-23T01:22:24.223Z,21.8
2018-07-23T01:23:04.795Z,21.82
2018-07-23T01:23:45.370Z,21.8
2018-07-23T01:24:25.912Z,21.8
2018-07-23T01:25:06.475Z,21.76
2018-07-23T01:25:47.043Z,21.69
2018-07-23T01:26:27.580Z,21.79
2018-07-23T01:27:08.130Z,21.69
2018-07-23T01:27:48.691Z,21.79
2018-07-23T01:28:29.274Z,21.7
2018-07-23T01:29:09.902Z,21.73
2018-07-23T01:29:50.433Z,21.66
2018-07-23T01:30:30.986Z,21.66
2018-07-23T01:31:11.541Z,21.75
2018-07-23T01:31:52.103Z,21.61
2018-07-23T01:32:32.650Z,21.67
2018-07-23T01:33:13.198Z,21.61
2018-07-23T01:33:53.741Z,21.75
2018-07-23T01:34:34.294Z,21.7
2018-07-23T01:35:14.866Z,21.7
2018-07-23T01:35:55.439Z,21.7
2018-07-23T01:36:36.000Z,21.73
2018-07-23T01:37:16.580Z,21.61
2018-07-23T01:37:57.139Z,21.67
2018-07-23T01:38:37.696Z,21.66
2018-07-23T01:39:18.270Z,21.66
2018-07-23T01:39:58.837Z,21.75
2018-07-23T01:40:39.406Z,21.57
2018-07-23T01:41:19.985Z,21.7
2018-07-23T01:42:00.551Z,21.62
2018-07-23T01:42:41.115Z,21.67
2018-07-23T01:43:21.679Z,21.69
2018-07-23T01:44:02.255Z,21.72
2018-07-23T01:44:42.809Z,21.73
2018-07-23T01:45:23.380Z,21.6
2018-07-23T01:46:03.954Z,21.66
2018-07-23T01:46:44.519Z,21.54
2018-07-23T01:47:25.085Z,21.6
2018-07-23T01:48:05.637Z,21.7
2018-07-23T01:48:46.193Z,21.6
2018-07-23T01:49:26.741Z,21.67
2018-07-23T01:50:07.302Z,21.52
2018-07-23T01:50:47.909Z,21.62
2018-07-23T01:51:28.477Z,21.51
2018-07-23T01:52:09.010Z,21.55
2018-07-23T01:52:49.570Z,21.51
2018-07-23T01:53:30.140Z,21.54
2018-07-23T01:54:10.724Z,21.55
2018-07-23T01:54:51.288Z,21.5
2018-07-23T01:55:31.865Z,21.5
2018-07-23T01:56:12.435Z,21.55
2018-07-23T01:56:52.974Z,21.54
2018-07-23T01:57:33.543Z,21.55
2018-07-23T01:58:14.118Z,21.52
2018-07-23T01:58:54.690Z,21.55
2018-07-23T01:59:35.261Z,21.62
2018-07-23T02:00:15.868Z,21.46
2018-07-23T02:00:56.400Z,21.46
2018-07-23T02:01:36.958Z,21.43
2018-07-23T02:02:17.505Z,21.5
2018-07-23T02:02:58.093Z,21.45
2018-07-23T02:03:38.659Z,21.48
2018-07-23T02:04:19.260Z,21.42
2018-07-23T02:04:59.832Z,21.43
2018-07-23T02:05:40.408Z,21.4
2018-07-23T02:06:20.983Z,21.43
2018-07-23T02:07:01.583Z,21.43
2018-07-23T02:07:42.285Z,21.46
2018-07-23T02:08:22.918Z,21.45
2018-07-23T02:09:03.531Z,21.42
2018-07-23T02:09:44.179Z,21.45
2018-07-23T02:10:24.727Z,21.48
2018-07-23T02:11:05.343Z,21.52
2018-07-23T02:11:46.069Z,21.4
2018-07-23T02:12:26.690Z,21.42
2018-07-23T02:13:07.237Z,21.48
2018-07-23T02:13:48.818Z,21.37
2018-07-23T02:14:29.389Z,21.39
2018-07-23T02:15:09.949Z,21.39
2018-07-23T02:15:50.514Z,21.39
2018-07-23T02:16:31.095Z,21.36
2018-07-23T02:17:11.634Z,21.33
2018-07-23T02:17:52.169Z,21.36
2018-07-23T02:18:32.765Z,21.37
2018-07-23T02:19:13.314Z,21.4
2018-07-23T02:19:53.886Z,21.37
2018-07-23T02:20:34.455Z,21.37
2018-07-23T02:21:15.028Z,21.4
2018-07-23T02:21:55.594Z,21.36
2018-07-23T02:22:36.151Z,21.27
2018-07-23T02:23:16.716Z,21.43
2018-07-23T02:23:57.272Z,21.35
2018-07-23T02:24:37.856Z,21.39
2018-07-23T02:25:18.453Z,21.4
2018-07-23T02:25:59.005Z,21.3
2018-07-23T02:26:39.602Z,21.36
2018-07-23T02:27:20.172Z,21.43
2018-07-23T02:28:00.729Z,21.3
2018-07-23T02:28:41.302Z,21.32
2018-07-23T02:29:21.864Z,21.32
2018-07-23T02:30:02.472Z,21.43
2018-07-23T02:30:43.007Z,21.32
2018-07-23T02:31:23.581Z,21.39
2018-07-23T02:32:04.194Z,21.39
2018-07-23T02:32:44.709Z,21.36
2018-07-23T02:33:25.270Z,21.36
2018-07-23T02:34:05.834Z,21.4
2018-07-23T02:34:46.390Z,21.33
2018-07-23T02:35:26.971Z,21.32
2018-07-23T02:36:07.561Z,21.3
2018-07-23T02:36:48.106Z,21.37
2018-07-23T02:37:28.696Z,21.37
2018-07-23T02:38:09.241Z,21.33
2018-07-23T02:38:49.818Z,21.29
2018-07-23T02:39:30.370Z,21.37
2018-07-23T02:40:10.941Z,21.35
2018-07-23T02:40:51.505Z,21.27
2018-07-23T02:41:32.077Z,21.25
2018-07-23T02:42:12.647Z,21.29
2018-07-23T02:42:53.199Z,21.3
2018-07-23T02:43:33.765Z,21.27
2018-07-23T02:44:14.343Z,21.29
2018-07-23T02:44:54.906Z,21.36
2018-07-23T02:45:35.479Z,21.25
2018-07-23T02:46:16.060Z,21.24
2018-07-23T02:46:56.635Z,21.21
2018-07-23T02:47:37.221Z,21.21
2018-07-23T02:48:17.812Z,21.21
2018-07-23T02:48:58.346Z,21.25
2018-07-23T02:49:38.915Z,21.2
2018-07-23T02:50:19.492Z,21.24
2018-07-23T02:51:00.055Z,21.17
2018-07-23T02:51:40.621Z,21.18
2018-07-23T02:52:21.189Z,21.22
2018-07-23T02:53:01.769Z,21.2
2018-07-23T02:53:42.339Z,21.21
2018-07-23T02:54:22.894Z,21.05
2018-07-23T02:55:03.476Z,21.03
2018-07-23T02:55:44.037Z,21.05
2018-07-23T02:56:24.592Z,21.11
2018-07-23T02:57:05.167Z,21.07
2018-07-23T02:57:45.753Z,21.11
2018-07-23T02:58:26.342Z,21.09
2018-07-23T02:59:06.906Z,21.14
2018-07-23T02:59:47.482Z,21.11
2018-07-23T03:00:28.057Z,21.11
2018-07-23T03:01:08.632Z,21.12
2018-07-23T03:01:49.203Z,21.09
2018-07-23T03:02:29.773Z,21.14
2018-07-23T03:03:10.329Z,21.14
2018-07-23T03:03:50.891Z,21.2
2018-07-23T03:04:31.457Z,21.14
2018-07-23T03:05:12.041Z,21.15
2018-07-23T03:05:52.606Z,21.17
2018-07-23T03:06:33.173Z,21.09
2018-07-23T03:07:13.752Z,21.14
2018-07-23T03:07:54.314Z,21.05
2018-07-23T03:08:34.883Z,21.15
2018-07-23T03:09:15.447Z,21.09
2018-07-23T03:09:56.006Z,21.17
2018-07-23T03:10:36.575Z,21.11
2018-07-23T03:11:17.132Z,21.17
2018-07-23T03:11:57.703Z,21.14
2018-07-23T03:12:38.261Z,21.14
2018-07-23T03:13:18.855Z,21.14
2018-07-23T03:13:59.398Z,21.17
2018-07-23T03:14:39.976Z,21.07
2018-07-23T03:15:20.525Z,21.15
2018-07-23T03:16:01.087Z,21.06
2018-07-23T03:16:41.646Z,21.05
2018-07-23T03:17:22.211Z,21.11
2018-07-23T03:18:02.789Z,21.03
2018-07-23T03:18:43.373Z,21.11
2018-07-23T03:19:23.938Z,21.12
2018-07-23T03:20:04.505Z,21.17
2018-07-23T03:20:45.084Z,21.05
2018-07-23T03:21:25.634Z,21.11
2018-07-23T03:22:06.207Z,21.17
2018-07-23T03:22:46.766Z,21.15
2018-07-23T03:23:27.331Z,21.05
2018-07-23T03:24:07.900Z,21.07
2018-07-23T03:24:48.460Z,21.12
2018-07-23T03:25:29.033Z,21.11
2018-07-23T03:26:09.605Z,21.18
2018-07-23T03:26:50.180Z,21.12
2018-07-23T03:27:30.741Z,21.18
2018-07-23T03:28:11.290Z,21.2
2018-07-23T03:28:51.862Z,21.17
2018-07-23T03:29:32.433Z,21.18
2018-07-23T03:30:13.025Z,21.06
2018-07-23T03:30:53.589Z,21.11
2018-07-23T03:31:34.159Z,21.18
2018-07-23T03:32:14.726Z,21.2
2018-07-23T03:32:55.289Z,21.03
2018-07-23T03:33:35.853Z,21.15
2018-07-23T03:34:16.413Z,21.2
2018-07-23T03:34:56.985Z,21.2
2018-07-23T03:35:37.547Z,21.06
2018-07-23T03:36:18.130Z,21.05
2018-07-23T03:36:58.698Z,21.17
2018-07-23T03:37:39.273Z,21.22
2018-07-23T03:38:19.841Z,21.21
2018-07-23T03:39:00.406Z,21.14
2018-07-23T03:39:40.960Z,21.22
2018-07-23T03:40:21.536Z,21.21
2018-07-23T03:41:02.103Z,21.17
2018-07-23T03:41:42.679Z,21.2
2018-07-23T03:42:23.245Z,21.22
2018-07-23T03:43:03.837Z,21.15
2018-07-23T03:43:44.366Z,21.2
2018-07-23T03:44:24.930Z,21.14
2018-07-23T03:45:05.486Z,21.22
2018-07-23T03:45:46.051Z,21.21
2018-07-23T03:46:26.626Z,21.22
2018-07-23T03:47:07.215Z,21.24
2018-07-23T03:47:47.777Z,21.18
2018-07-23T03:48:28.340Z,21.21
2018-07-23T03:49:08.903Z,21.15
2018-07-23T03:49:49.469Z,21.2
2018-07-23T03:50:30.040Z,21.2
2018-07-23T03:51:10.608Z,21.2
2018-07-23T03:51:51.174Z,21.15
2018-07-23T03:52:31.752Z,21.17
2018-07-23T03:53:12.314Z,21.2
2018-07-23T03:53:52.884Z,21.15
2018-07-23T03:54:33.443Z,21.17
2018-07-23T03:55:14.005Z,21.2
2018-07-23T03:55:54.576Z,21.27
2018-07-23T03:56:35.143Z,21.22
2018-07-23T03:57:15.722Z,21.15
2018-07-23T03:57:56.272Z,21.15
2018-07-23T03:58:36.846Z,21.15
2018-07-23T03:59:17.421Z,21.2
2018-07-23T03:59:57.981Z,21.18
2018-07-23T04:00:38.547Z,21.18
2018-07-23T04:01:19.092Z,21.24
2018-07-23T04:01:59.677Z,21.14
2018-07-23T04:02:40.235Z,21.27
2018-07-23T04:03:20.839Z,21.2
2018-07-23T04:04:01.377Z,21.21
2018-07-23T04:04:41.954Z,21.22
2018-07-23T04:05:22.559Z,21.3
2018-07-23T04:06:03.151Z,21.29
2018-07-23T04:06:43.711Z,21.21
2018-07-23T04:07:24.263Z,21.25
2018-07-23T04:08:04.849Z,21.18
2018-07-23T04:08:45.414Z,21.3
2018-07-23T04:09:25.985Z,21.17
2018-07-23T04:10:06.664Z,21.18
2018-07-23T04:10:47.561Z,21.14
2018-07-23T04:11:28.123Z,21.17
2018-07-23T04:12:08.694Z,21.22
2018-07-23T04:12:49.264Z,21.2
2018-07-23T04:13:29.828Z,21.22
2018-07-23T04:14:10.470Z,21.22
2018-07-23T04:14:51.042Z,21.29
2018-07-23T04:15:31.614Z,21.15
2018-07-23T04:16:12.180Z,21.15
2018-07-23T04:16:52.762Z,21.17
2018-07-23T04:17:33.368Z,21.22
2018-07-23T04:18:13.884Z,21.15
2018-07-23T04:18:54.448Z,21.21
2018-07-23T04:19:35.015Z,21.15
2018-07-23T04:20:15.587Z,21.25
2018-07-23T04:20:56.192Z,21.17
2018-07-23T04:21:36.744Z,21.18
2018-07-23T04:22:17.312Z,21.07
2018-07-23T04:22:57.871Z,21.22
2018-07-23T04:23:38.475Z,21.21
2018-07-23T04:24:19.032Z,21.22
2018-07-23T04:24:59.591Z,21.2
2018-07-23T04:25:40.152Z,21.22
2018-07-23T04:26:20.710Z,21.22
2018-07-23T04:27:01.278Z,21.22
2018-07-23T04:27:41.844Z,21.15
2018-07-23T04:28:22.422Z,21.14
2018-07-23T04:29:02.985Z,21.17
2018-07-23T04:29:43.543Z,21.21
2018-07-23T04:30:24.108Z,21.22
2018-07-23T04:31:04.667Z,21.2
2018-07-23T04:31:45.230Z,21.18
2018-07-23T04:32:25.832Z,21.14
2018-07-23T04:33:06.408Z,21.2
2018-07-23T04:33:47.029Z,21.2
2018-07-23T04:34:27.614Z,21.22
2018-07-23T04:35:08.241Z,21.21
2018-07-23T04:35:48.815Z,21.24
2018-07-23T04:36:29.383Z,21.15
2018-07-23T04:37:09.941Z,21.2
2018-07-23T04:37:50.553Z,21.18
2018-07-23T04:38:31.065Z,21.17
2018-07-23T04:39:11.633Z,21.2
2018-07-23T04:39:52.199Z,21.22
2018-07-23T04:40:32.766Z,21.12
2018-07-23T04:41:13.330Z,21.15
2018-07-23T04:41:53.918Z,21.25
2018-07-23T04:42:34.486Z,21.2
2018-07-23T04:43:15.055Z,21.21
2018-07-23T04:43:55.606Z,21.24
2018-07-23T04:44:36.168Z,21.3
2018-07-23T04:45:16.725Z,21.27
2018-07-23T04:45:57.304Z,21.25
2018-07-23T04:46:37.905Z,21.24
2018-07-23T04:47:18.460Z,21.32
2018-07-23T04:47:59.014Z,21.29
2018-07-23T04:48:39.557Z,21.32
2018-07-23T04:49:20.177Z,21.4
2018-07-23T04:50:00.683Z,21.24
2018-07-23T04:50:41.263Z,21.3
2018-07-23T04:51:21.832Z,21.29
2018-07-23T04:52:02.381Z,21.32
2018-07-23T04:52:42.934Z,21.29
2018-07-23T04:53:23.493Z,21.27
2018-07-23T04:54:04.061Z,21.24
2018-07-23T04:54:44.714Z,21.35
2018-07-23T04:55:25.268Z,21.3
2018-07-23T04:56:05.821Z,21.24
2018-07-23T04:56:46.453Z,21.3
2018-07-23T04:57:26.935Z,21.29
2018-07-23T04:58:07.514Z,21.3
2018-07-23T04:58:48.080Z,21.3
2018-07-23T04:59:28.646Z,21.29
2018-07-23T05:00:09.232Z,21.24
2018-07-23T05:00:49.800Z,21.33
2018-07-23T05:01:30.384Z,21.35
2018-07-23T05:02:10.927Z,21.33
2018-07-23T05:02:51.503Z,21.27
2018-07-23T05:03:32.064Z,21.37
2018-07-23T05:04:12.644Z,21.27
2018-07-23T05:04:53.194Z,21.33
2018-07-23T05:05:33.778Z,21.36
2018-07-23T05:06:14.377Z,21.4
2018-07-23T05:06:54.950Z,21.33
2018-07-23T05:07:35.502Z,21.32
2018-07-23T05:08:16.067Z,21.35
2018-07-23T05:08:56.625Z,21.35
2018-07-23T05:09:37.186Z,21.39
2018-07-23T05:10:17.756Z,21.37
2018-07-23T05:10:58.327Z,21.37
2018-07-23T05:11:38.906Z,21.39
2018-07-23T05:12:19.470Z,21.37
2018-07-23T05:13:00.038Z,21.43
2018-07-23T05:13:40.594Z,21.43
2018-07-23T05:14:21.159Z,21.4
2018-07-23T05:15:01.708Z,21.4
2018-07-23T05:15:42.266Z,21.43
2018-07-23T05:16:22.826Z,21.43
2018-07-23T05:17:03.396Z,21.48
2018-07-23T05:17:43.997Z,21.45
2018-07-23T05:18:24.608Z,21.45
2018-07-23T05:19:05.163Z,21.5
2018-07-23T05:19:45.706Z,21.46
2018-07-23T05:20:26.271Z,21.5
2018-07-23T05:21:06.857Z,21.51
2018-07-23T05:21:47.407Z,21.51
2018-07-23T05:22:27.987Z,21.5
2018-07-23T05:23:08.560Z,21.45
2018-07-23T05:23:49.168Z,21.42
2018-07-23T05:24:29.715Z,21.55
2018-07-23T05:25:10.233Z,21.5
2018-07-23T05:25:50.780Z,21.45
2018-07-23T05:26:31.330Z,21.54
2018-07-23T05:27:11.907Z,21.5
2018-07-23T05:27:52.497Z,21.45
2018-07-23T05:28:33.068Z,21.52
2018-07-23T05:29:13.643Z,21.52
2018-07-23T05:29:54.211Z,21.57
2018-07-23T05:30:34.781Z,21.5
2018-07-23T05:31:15.353Z,21.55
2018-07-23T05:31:55.984Z,21.58
2018-07-23T05:32:36.541Z,21.61
2018-07-23T05:33:17.106Z,21.67
2018-07-23T05:33:57.687Z,21.66
2018-07-23T05:34:38.251Z,21.6
2018-07-23T05:35:18.830Z,21.62
2018-07-23T05:35:59.393Z,21.75
2018-07-23T05:36:40.499Z,21.64
2018-07-23T05:37:21.066Z,21.76
2018-07-23T05:38:01.626Z,21.73
2018-07-23T05:38:42.216Z,21.79
2018-07-23T05:39:22.768Z,21.83
2018-07-23T05:40:03.340Z,21.82
2018-07-23T05:40:43.905Z,21.79
2018-07-23T05:41:24.474Z,21.92
2018-07-23T05:42:05.036Z,21.99
2018-07-23T05:42:45.592Z,22
2018-07-23T05:43:26.167Z,22.18
2018-07-23T05:44:06.724Z,22.22
2018-07-23T05:44:47.296Z,22.3
2018-07-23T05:45:27.856Z,22.29
2018-07-23T05:46:08.426Z,22.35
2018-07-23T05:46:48.987Z,22.44
2018-07-23T05:47:29.552Z,22.53
2018-07-23T05:48:10.121Z,22.54
2018-07-23T05:48:50.698Z,22.68
2018-07-23T05:49:31.280Z,22.7
2018-07-23T05:50:11.918Z,22.72
2018-07-23T05:50:52.483Z,22.9
2018-07-23T05:51:33.061Z,23
2018-07-23T05:52:13.630Z,23.1
2018-07-23T05:52:54.237Z,23.15
2018-07-23T05:53:34.786Z,23.31
2018-07-23T05:54:15.360Z,23.4
2018-07-23T05:54:55.933Z,23.31
2018-07-23T05:55:36.493Z,23.59
2018-07-23T05:56:17.069Z,23.55
2018-07-23T05:56:57.627Z,23.66
2018-07-23T05:57:38.236Z,23.78
2018-07-23T05:58:18.749Z,23.96
2018-07-23T05:58:59.402Z,24.05
2018-07-23T05:59:39.890Z,24.13
2018-07-23T06:00:20.476Z,24.13
2018-07-23T06:01:01.038Z,24.21
2018-07-23T06:01:41.639Z,24.28
2018-07-23T06:02:22.169Z,24.3
2018-07-23T06:03:02.746Z,24.28
2018-07-23T06:03:43.378Z,24.47
2018-07-23T06:04:23.895Z,24.55
2018-07-23T06:05:04.874Z,24.57
2018-07-23T06:05:45.455Z,24.6
2018-07-23T06:06:26.088Z,24.74
2018-07-23T06:07:06.614Z,24.7
2018-07-23T06:07:47.268Z,24.81
2018-07-23T06:08:27.852Z,24.93
2018-07-23T06:09:08.434Z,24.96
2018-07-23T06:09:49.008Z,24.96
2018-07-23T06:10:29.596Z,25.08
2018-07-23T06:11:10.160Z,25.07
2018-07-23T06:11:50.754Z,25.08
2018-07-23T06:12:31.323Z,25.17
2018-07-23T06:13:11.971Z,25.22
2018-07-23T06:13:52.552Z,25.23
2018-07-23T06:14:33.124Z,25.23
2018-07-23T06:15:13.712Z,25.36
2018-07-23T06:15:54.302Z,25.41
2018-07-23T06:16:34.874Z,25.48
2018-07-23T06:17:15.462Z,25.41
2018-07-23T06:17:56.039Z,25.6
2018-07-23T06:18:36.611Z,25.58
2018-07-23T06:19:17.195Z,25.7
2018-07-23T06:19:57.775Z,25.7
2018-07-23T06:20:38.344Z,25.78
2018-07-23T06:21:18.914Z,25.77
2018-07-23T06:21:59.487Z,25.84
2018-07-23T06:22:40.071Z,25.84
2018-07-23T06:23:20.642Z,25.91
2018-07-23T06:24:01.394Z,26.02
2018-07-23T06:24:42.049Z,26.05
2018-07-23T06:25:22.633Z,26.15
2018-07-23T06:26:03.198Z,26.19
2018-07-23T06:26:43.782Z,26.22
2018-07-23T06:27:24.362Z,26.23
2018-07-23T06:28:04.950Z,26.33
2018-07-23T06:28:45.510Z,26.28
2018-07-23T06:29:26.086Z,26.38
2018-07-23T06:30:06.717Z,26.36
2018-07-23T06:30:47.236Z,26.38
2018-07-23T06:31:27.830Z,26.34
2018-07-23T06:32:08.438Z,26.48
2018-07-23T06:32:49.013Z,26.48
2018-07-23T06:33:29.594Z,26.44
2018-07-23T06:34:10.174Z,26.56
2018-07-23T06:34:50.748Z,26.47
2018-07-23T06:35:31.312Z,26.63
2018-07-23T06:36:11.872Z,26.74
2018-07-23T06:36:52.450Z,26.63
2018-07-23T06:37:33.039Z,26.62
2018-07-23T06:38:13.610Z,26.59
2018-07-23T06:38:54.202Z,26.63
2018-07-23T06:39:34.780Z,26.63
2018-07-23T06:40:15.417Z,26.65
2018-07-23T06:40:56.007Z,26.7
2018-07-23T06:41:36.567Z,26.66
2018-07-23T06:42:17.144Z,26.7
2018-07-23T06:42:57.727Z,26.77
2018-07-23T06:43:38.296Z,26.8
2018-07-23T06:44:18.956Z,26.78
2018-07-23T06:44:59.556Z,26.81
2018-07-23T06:45:40.146Z,26.83
2018-07-23T06:46:20.727Z,26.81
2018-07-23T06:47:01.311Z,26.85
2018-07-23T06:47:41.904Z,26.77
2018-07-23T06:48:22.471Z,26.93
2018-07-23T06:49:03.049Z,26.89
2018-07-23T06:49:43.634Z,27.05
2018-07-23T06:50:24.181Z,27.07
2018-07-23T06:51:04.794Z,27.11
2018-07-23T06:51:45.376Z,27.15
2018-07-23T06:52:25.963Z,27.26
2018-07-23T06:53:06.647Z,27.3
2018-07-23T06:53:47.232Z,27.36
2018-07-23T06:54:27.812Z,27.42
2018-07-23T06:55:08.398Z,27.33
2018-07-23T06:55:48.977Z,27.42
2018-07-23T06:56:29.580Z,27.39
2018-07-23T06:57:10.144Z,27.49
2018-07-23T06:57:50.736Z,27.42
2018-07-23T06:58:31.319Z,27.48
2018-07-23T06:59:11.967Z,27.54
2018-07-23T06:59:52.550Z,27.54
2018-07-23T07:00:33.142Z,27.55
2018-07-23T07:01:13.700Z,27.59
2018-07-23T07:01:54.281Z,27.49
2018-07-23T07:02:34.870Z,27.64
2018-07-23T07:03:15.455Z,27.63
2018-07-23T07:03:56.027Z,27.68
2018-07-23T07:04:36.636Z,27.74
2018-07-23T07:05:17.213Z,27.74
2018-07-23T07:05:57.790Z,27.7
2018-07-23T07:06:38.382Z,27.71
2018-07-23T07:07:18.961Z,27.77
2018-07-23T07:07:59.547Z,27.77
2018-07-23T07:08:40.127Z,27.86
2018-07-23T07:09:20.696Z,27.8
2018-07-23T07:10:01.358Z,28.01
2018-07-23T07:10:41.961Z,27.92
2018-07-23T07:11:22.509Z,28.04
2018-07-23T07:12:03.098Z,28
2018-07-23T07:12:43.673Z,28
2018-07-23T07:13:24.349Z,27.98
2018-07-23T07:14:04.874Z,27.95
2018-07-23T07:14:45.448Z,27.96
2018-07-23T07:15:26.032Z,27.92
2018-07-23T07:16:06.600Z,27.8
2018-07-23T07:16:47.177Z,27.8
2018-07-23T07:17:27.764Z,27.77
2018-07-23T07:18:08.340Z,27.74
2018-07-23T07:18:48.984Z,27.71
2018-07-23T07:19:29.567Z,27.67
2018-07-23T07:20:10.149Z,27.6
2018-07-23T07:20:50.720Z,27.58
2018-07-23T07:21:31.350Z,27.6
2018-07-23T07:22:11.978Z,27.52
2018-07-23T07:22:52.541Z,27.54
2018-07-23T07:23:33.217Z,27.74
2018-07-23T07:24:13.808Z,27.71
2018-07-23T07:24:54.463Z,27.82
2018-07-23T07:25:35.847Z,27.96
2018-07-23T07:26:16.416Z,27.98
2018-07-23T07:26:57.012Z,28.02
2018-07-23T07:27:37.555Z,28.14
2018-07-23T07:28:18.119Z,28.08
2018-07-23T07:28:58.697Z,28.25
2018-07-23T07:29:39.273Z,28.26
2018-07-23T07:30:19.851Z,28.25
2018-07-23T07:31:00.562Z,28.26
2018-07-23T07:31:41.132Z,28.27
2018-07-23T07:32:21.721Z,28.22
2018-07-23T07:33:02.280Z,28.22
2018-07-23T07:33:42.855Z,28.3
2018-07-23T07:34:23.428Z,28.32
2018-07-23T07:35:04.004Z,28.35
2018-07-23T07:35:44.582Z,28.39
2018-07-23T07:36:25.152Z,28.37
2018-07-23T07:37:05.733Z,28.45
2018-07-23T07:37:46.324Z,28.47
2018-07-23T07:38:26.896Z,28.47
2018-07-23T07:39:07.479Z,28.52
2018-07-23T07:39:48.059Z,28.56
2018-07-23T07:40:28.641Z,28.54
2018-07-23T07:41:09.219Z,28.49
2018-07-23T07:41:49.809Z,28.63
2018-07-23T07:42:30.384Z,28.59
2018-07-23T07:43:11.022Z,28.56
2018-07-23T07:43:51.603Z,28.64
2018-07-23T07:44:32.190Z,28.69
2018-07-23T07:45:12.760Z,28.75
2018-07-23T07:45:53.341Z,28.76
2018-07-23T07:46:33.923Z,28.79
2018-07-23T07:47:14.461Z,28.76
2018-07-23T07:47:55.064Z,28.74
2018-07-23T07:48:35.640Z,28.67
2018-07-23T07:49:16.204Z,28.74
2018-07-23T07:49:56.808Z,28.74
2018-07-23T07:50:37.389Z,28.7
2018-07-23T07:51:17.986Z,28.66
2018-07-23T07:51:58.574Z,28.74
2018-07-23T07:52:39.191Z,28.64
2018-07-23T07:53:19.759Z,28.7
2018-07-23T07:54:00.339Z,28.74
2018-07-23T07:54:40.932Z,28.79
2018-07-23T07:55:21.524Z,28.86
2018-07-23T07:56:02.125Z,28.79
2018-07-23T07:56:42.702Z,28.81
2018-07-23T07:57:23.295Z,28.79
2018-07-23T07:58:03.883Z,28.86
2018-07-23T07:58:44.552Z,28.84
2018-07-23T07:59:25.057Z,28.84
2018-07-23T08:00:05.674Z,28.76
2018-07-23T08:00:46.194Z,28.84
2018-07-23T08:01:26.777Z,28.79
2018-07-23T08:02:07.363Z,28.84
2018-07-23T08:02:47.934Z,28.79
2018-07-23T08:03:28.513Z,28.79
2018-07-23T08:04:09.082Z,28.85
2018-07-23T08:04:49.670Z,28.63
2018-07-23T08:05:30.223Z,28.63
2018-07-23T08:06:10.804Z,28.57
2018-07-23T08:06:51.399Z,28.59
2018-07-23T08:07:31.980Z,28.51
2018-07-23T08:08:12.572Z,28.56
2018-07-23T08:08:53.142Z,28.63
2018-07-23T08:09:33.706Z,28.66
2018-07-23T08:10:14.290Z,28.66
2018-07-23T08:10:54.874Z,28.66
2018-07-23T08:11:35.454Z,28.51
2018-07-23T08:12:16.025Z,28.6
2018-07-23T08:12:56.607Z,28.49
2018-07-23T08:13:37.197Z,28.42
2018-07-23T08:14:17.767Z,28.41
2018-07-23T08:14:58.386Z,28.45
2018-07-23T08:15:38.956Z,28.41
2018-07-23T08:16:19.540Z,28.38
2018-07-23T08:17:00.125Z,28.42
2018-07-23T08:17:40.693Z,28.45
2018-07-23T08:18:21.268Z,28.45
2018-07-23T08:19:01.837Z,28.47
2018-07-23T08:19:42.420Z,28.63
2018-07-23T08:20:23.001Z,28.56
2018-07-23T08:21:03.585Z,28.64
2018-07-23T08:21:44.168Z,28.7
2018-07-23T08:22:24.798Z,28.66
2018-07-23T08:23:05.389Z,28.57
2018-07-23T08:23:45.960Z,28.57
2018-07-23T08:24:26.559Z,28.64
2018-07-23T08:25:07.184Z,28.56
2018-07-23T08:25:47.719Z,28.57
2018-07-23T08:26:28.295Z,28.52
2018-07-23T08:27:08.875Z,28.48
2018-07-23T08:27:49.500Z,28.54
2018-07-23T08:28:30.004Z,28.59
2018-07-23T08:29:10.580Z,28.57
2018-07-23T08:29:51.153Z,28.52
2018-07-23T08:30:31.745Z,28.66
2018-07-23T08:31:12.349Z,28.64
2018-07-23T08:31:53.038Z,28.59
2018-07-23T08:32:33.459Z,28.57
2018-07-23T08:33:14.074Z,28.62
2018-07-23T08:33:54.661Z,28.6
2018-07-23T08:34:35.226Z,28.59
2018-07-23T08:35:15.785Z,28.48
2018-07-23T08:35:56.364Z,28.54
2018-07-23T08:36:36.962Z,28.62
2018-07-23T08:37:17.592Z,28.59
2018-07-23T08:37:58.149Z,28.64
2018-07-23T08:38:38.745Z,28.6
2018-07-23T08:39:19.276Z,28.64
2018-07-23T08:39:59.864Z,28.66
2018-07-23T08:40:40.487Z,28.57
2018-07-23T08:41:21.140Z,28.48
2018-07-23T08:42:01.746Z,28.27
2018-07-23T08:42:42.311Z,28.27
2018-07-23T08:43:22.907Z,28.22
2018-07-23T08:44:03.466Z,28.11
2018-07-23T08:44:44.060Z,28.15
2018-07-23T08:45:24.633Z,28.19